createdAt,value
2022-10-19T12:48:22.925Z,22.33
2022-10-19T12:53:28.276Z,22.38
2022-10-19T12:58:36.024Z,22.35
2022-10-19T13:03:42.894Z,22.29
2022-10-19T13:08:49.179Z,22.28
2022-10-19T13:14:04.766Z,22.66
2022-10-19T13:19:23.135Z,22.48
2022-10-19T13:24:35.500Z,22.66
2022-10-19T13:29:44.709Z,23.13
2022-10-19T13:34:49.819Z,23.77
2022-10-19T13:39:53.252Z,23.68
2022-10-19T13:44:56.647Z,23.70
2022-10-19T13:50:13.861Z,23.61
2022-10-19T13:55:28.541Z,23.63
2022-10-19T14:00:37.067Z,23.54
2022-10-19T14:05:56.773Z,23.11
2022-10-19T14:11:01.879Z,23.16
2022-10-19T14:16:05.653Z,23.59
2022-10-19T14:21:11.459Z,23.42
2022-10-19T14:26:16.527Z,23.11
2022-10-19T14:31:23.465Z,22.87
2022-10-19T14:36:33.758Z,22.79
2022-10-19T14:41:38.231Z,22.55
2022-10-19T14:46:41.680Z,22.50
2022-10-19T14:51:48.237Z,22.48
2022-10-19T14:56:54.383Z,22.59
2022-10-19T15:01:59.640Z,22.41
2022-10-19T15:07:06.155Z,22.12
2022-10-19T15:12:13.447Z,21.90
2022-10-19T15:17:24.977Z,21.62
2022-10-19T15:22:40.764Z,21.48
2022-10-19T15:27:47.145Z,21.36
2022-10-19T15:32:52.426Z,21.34
2022-10-19T15:38:03.704Z,21.00
2022-10-19T15:43:45.025Z,20.84
2022-10-19T15:48:52.284Z,20.60
2022-10-19T15:54:01.367Z,20.45
2022-10-19T15:59:06.521Z,20.11
2022-10-19T16:04:10.142Z,19.98
2022-10-19T16:09:19.253Z,19.66
2022-10-19T16:14:22.697Z,19.53
2022-10-19T16:19:26.217Z,19.29
2022-10-19T16:24:31.157Z,19.01
2022-10-19T16:29:34.661Z,18.84
2022-10-19T16:34:38.341Z,18.81
2022-10-19T16:39:43.263Z,18.63
2022-10-19T16:44:46.739Z,18.45
2022-10-19T16:49:58.339Z,18.23
2022-10-19T16:55:03.238Z,18.18
2022-10-19T17:00:09.421Z,17.96
2022-10-19T17:05:12.850Z,18.00
2022-10-19T17:10:17.882Z,17.92
2022-10-19T17:15:41.873Z,17.77
2022-10-19T17:20:44.808Z,17.78
2022-10-19T17:25:49.902Z,17.68
2022-10-19T17:30:53.707Z,17.56
2022-10-19T17:35:57.186Z,17.46
2022-10-19T17:41:07.506Z,17.56
2022-10-19T17:46:12.600Z,17.37
2022-10-19T17:51:17.922Z,17.31
2022-10-19T17:56:23.058Z,17.04
2022-10-19T18:01:27.934Z,17.03
2022-10-19T18:06:32.781Z,16.95
2022-10-19T18:11:40.212Z,16.89
2022-10-19T18:16:45.552Z,16.92
2022-10-19T18:21:49.167Z,16.87
2022-10-19T18:26:53.982Z,16.89
2022-10-19T18:31:57.481Z,16.84
2022-10-19T18:37:00.906Z,16.83
2022-10-19T18:42:05.696Z,16.86
2022-10-19T18:47:09.184Z,16.77
2022-10-19T18:52:12.566Z,16.74
2022-10-19T18:57:17.373Z,16.56
2022-10-19T19:02:22.675Z,16.45
2022-10-19T19:07:31.952Z,16.35
2022-10-19T19:12:36.900Z,16.54
2022-10-19T19:17:40.640Z,16.41
2022-10-19T19:22:43.996Z,16.51
2022-10-19T19:27:48.699Z,16.52
2022-10-19T19:32:52.056Z,16.33
2022-10-19T19:37:55.448Z,16.28
2022-10-19T19:43:00.166Z,16.21
2022-10-19T19:48:03.622Z,16.30
2022-10-19T19:53:07.019Z,16.41
2022-10-19T19:58:12.594Z,16.27
2022-10-19T20:03:16.297Z,16.23
2022-10-19T20:08:19.712Z,16.19
2022-10-19T20:13:24.595Z,16.22
2022-10-19T20:18:28.150Z,16.09
2022-10-19T20:23:32.238Z,16.16
2022-10-19T20:28:37.178Z,15.95
2022-10-19T20:33:42.476Z,16.09
2022-10-19T20:38:47.940Z,16.02
2022-10-19T20:43:53.736Z,16.08
2022-10-19T20:48:59.609Z,15.90
2022-10-19T20:54:04.674Z,15.96
2022-10-19T20:59:12.551Z,15.68
2022-10-19T21:04:16.702Z,15.76
2022-10-19T21:09:21.395Z,15.85
2022-10-19T21:14:28.795Z,15.88
2022-10-19T21:19:32.858Z,15.91
2022-10-19T21:24:37.678Z,15.75
2022-10-19T21:29:42.549Z,15.66
2022-10-19T21:34:45.991Z,15.67
2022-10-19T21:39:49.430Z,15.62
2022-10-19T21:45:06.236Z,15.58
2022-10-19T21:50:18.338Z,15.20
2022-10-19T21:55:21.987Z,15.13
2022-10-19T22:00:27.633Z,15.27
2022-10-19T22:05:31.114Z,15.21
2022-10-19T22:10:34.541Z,15.03
2022-10-19T22:15:39.791Z,14.99
2022-10-19T22:20:43.182Z,14.80
2022-10-19T22:25:46.559Z,14.89
2022-10-19T22:30:55.199Z,14.82
2022-10-19T22:36:00.059Z,14.82
2022-10-19T22:41:03.607Z,14.79
2022-10-19T22:46:08.497Z,14.77
2022-10-19T22:51:11.888Z,14.68
2022-10-19T22:56:15.292Z,14.47
2022-10-19T23:01:20.173Z,14.54
2022-10-19T23:06:23.799Z,14.71
2022-10-19T23:11:27.407Z,14.62
2022-10-19T23:16:32.261Z,14.74
2022-10-19T23:21:35.665Z,14.60
2022-10-19T23:26:39.271Z,14.65
2022-10-19T23:31:44.397Z,14.50
2022-10-19T23:36:47.793Z,14.42
2022-10-19T23:41:51.278Z,14.28
2022-10-19T23:46:56.035Z,14.14
2022-10-19T23:51:59.496Z,14.10
2022-10-19T23:57:02.970Z,14.11
